createdAt,value
2017-12-06T00:00:12.895Z,927.48
2017-12-06T00:00:26.018Z,927.47
2017-12-06T00:00:38.634Z,927.49
2017-12-06T00:00:51.308Z,927.45
2017-12-06T00:01:04.354Z,927.46
2017-12-06T00:01:17.413Z,927.46
2017-12-06T00:01:30.003Z,927.48
2017-12-06T00:01:43.156Z,927.45
2017-12-06T00:01:55.767Z,927.5
2017-12-06T00:02:07.956Z,927.43
2017-12-06T00:02:21.088Z,927.46
2017-12-06T00:02:34.149Z,927.45
2017-12-06T00:02:47.190Z,927.44
2017-12-06T00:03:00.271Z,927.46
2017-12-06T00:03:12.937Z,927.47
2017-12-06T00:03:26.060Z,927.48
2017-12-06T00:03:38.279Z,927.46
2017-12-06T00:03:51.398Z,927.48
2017-12-06T00:04:04.512Z,927.49
2017-12-06T00:04:17.623Z,927.49
2017-12-06T00:04:30.724Z,927.51
2017-12-06T00:04:43.411Z,927.53
2017-12-06T00:04:56.084Z,927.56
2017-12-06T00:05:09.196Z,927.53
2017-12-06T00:05:22.323Z,927.54
2017-12-06T00:05:35.489Z,927.54
2017-12-06T00:05:48.568Z,927.58
2017-12-06T00:06:01.650Z,927.61
2017-12-06T00:06:14.797Z,927.56
2017-12-06T00:06:27.434Z,927.51
2017-12-06T00:06:40.582Z,927.56
2017-12-06T00:06:53.691Z,927.55
2017-12-06T00:07:06.821Z,927.55
2017-12-06T00:07:19.999Z,927.53
2017-12-06T00:07:32.693Z,927.6
2017-12-06T00:07:45.814Z,927.57
2017-12-06T00:07:58.986Z,927.55
2017-12-06T00:08:12.514Z,927.52
2017-12-06T00:08:25.628Z,927.52
2017-12-06T00:08:38.242Z,927.49
2017-12-06T00:08:51.336Z,927.47
2017-12-06T00:09:03.485Z,927.5
2017-12-06T00:09:16.063Z,927.46
2017-12-06T00:09:28.700Z,927.5
2017-12-06T00:09:39.892Z,927.44
2017-12-06T00:09:53.028Z,927.47
2017-12-06T00:10:06.087Z,927.46
2017-12-06T00:10:18.737Z,927.45
2017-12-06T00:10:31.831Z,927.43
2017-12-06T00:10:44.517Z,927.42
2017-12-06T00:10:57.647Z,927.45
2017-12-06T00:11:10.747Z,927.41
2017-12-06T00:11:23.834Z,927.43
2017-12-06T00:11:36.975Z,927.43
2017-12-06T00:11:50.077Z,927.41
2017-12-06T00:12:03.199Z,927.41
2017-12-06T00:12:15.869Z,927.44
2017-12-06T00:12:28.938Z,927.45
2017-12-06T00:12:41.581Z,927.47
2017-12-06T00:12:54.246Z,927.46
2017-12-06T00:13:07.454Z,927.45
2017-12-06T00:13:20.601Z,927.43
2017-12-06T00:13:33.699Z,927.41
2017-12-06T00:13:46.810Z,927.44
2017-12-06T00:13:58.439Z,927.47
2017-12-06T00:14:11.574Z,927.46
2017-12-06T00:14:24.304Z,927.51
2017-12-06T00:14:37.454Z,927.47
2017-12-06T00:14:50.132Z,927.49
2017-12-06T00:15:03.197Z,927.51
2017-12-06T00:15:16.366Z,927.53
2017-12-06T00:15:28.979Z,927.52
2017-12-06T00:15:42.148Z,927.52
2017-12-06T00:15:55.729Z,927.52
2017-12-06T00:16:08.328Z,927.53
2017-12-06T00:16:20.959Z,927.54
2017-12-06T00:16:34.040Z,927.56
2017-12-06T00:16:46.250Z,927.53
2017-12-06T00:16:59.312Z,927.55
2017-12-06T00:17:12.413Z,927.54
2017-12-06T00:17:25.465Z,927.57
2017-12-06T00:17:38.614Z,927.53
2017-12-06T00:17:51.770Z,927.57
2017-12-06T00:18:04.896Z,927.57
2017-12-06T00:18:18.029Z,927.61
2017-12-06T00:18:31.174Z,927.55
2017-12-06T00:18:44.323Z,927.59
2017-12-06T00:18:56.941Z,927.59
2017-12-06T00:19:09.549Z,927.58
2017-12-06T00:19:22.667Z,927.55
2017-12-06T00:19:35.258Z,927.55
2017-12-06T00:19:47.439Z,927.58
2017-12-06T00:20:00.063Z,927.57
2017-12-06T00:20:12.727Z,927.57
2017-12-06T00:20:25.882Z,927.58
2017-12-06T00:20:39.290Z,927.56
2017-12-06T00:20:51.547Z,927.62
2017-12-06T00:21:04.681Z,927.59
2017-12-06T00:21:17.812Z,927.6
2017-12-06T00:21:30.467Z,927.57
2017-12-06T00:21:43.540Z,927.62
2017-12-06T00:21:56.641Z,927.6
2017-12-06T00:22:09.755Z,927.61
2017-12-06T00:22:22.925Z,927.61
2017-12-06T00:22:34.647Z,927.62
2017-12-06T00:22:47.801Z,927.61
2017-12-06T00:23:00.946Z,927.63
2017-12-06T00:23:14.495Z,927.62
2017-12-06T00:23:27.650Z,927.7
2017-12-06T00:23:40.798Z,927.69
2017-12-06T00:23:52.961Z,927.71
2017-12-06T00:24:05.186Z,927.64
2017-12-06T00:24:17.810Z,927.68
2017-12-06T00:24:30.870Z,927.7
2017-12-06T00:24:43.526Z,927.67
2017-12-06T00:24:56.652Z,927.71
2017-12-06T00:25:09.292Z,927.71
2017-12-06T00:25:22.455Z,927.72
2017-12-06T00:25:35.621Z,927.74
2017-12-06T00:25:48.780Z,927.69
2017-12-06T00:26:01.384Z,927.71
2017-12-06T00:26:14.539Z,927.71
2017-12-06T00:26:27.694Z,927.74
2017-12-06T00:26:40.363Z,927.76
2017-12-06T00:26:53.485Z,927.74
2017-12-06T00:27:06.596Z,927.73
2017-12-06T00:27:19.238Z,927.74
2017-12-06T00:27:32.375Z,927.72
2017-12-06T00:27:45.548Z,927.73
2017-12-06T00:27:58.701Z,927.71
2017-12-06T00:28:11.842Z,927.77
2017-12-06T00:28:24.448Z,927.74
2017-12-06T00:28:37.568Z,927.76
2017-12-06T00:28:50.708Z,927.76
2017-12-06T00:29:02.457Z,927.78
2017-12-06T00:29:15.655Z,927.79
2017-12-06T00:29:28.776Z,927.77
2017-12-06T00:29:41.942Z,927.81
2017-12-06T00:29:55.060Z,927.78
2017-12-06T00:30:06.819Z,927.83
2017-12-06T00:30:19.976Z,927.86
2017-12-06T00:30:33.069Z,927.79
2017-12-06T00:30:45.757Z,927.83
2017-12-06T00:30:57.991Z,927.83
2017-12-06T00:31:11.195Z,927.84
2017-12-06T00:31:23.900Z,927.81
2017-12-06T00:31:37.158Z,927.8
2017-12-06T00:31:50.261Z,927.85
2017-12-06T00:32:03.390Z,927.85
2017-12-06T00:32:16.632Z,927.87
2017-12-06T00:32:29.810Z,927.85
2017-12-06T00:32:42.980Z,927.87
2017-12-06T00:32:56.284Z,927.86
2017-12-06T00:33:08.465Z,927.86
2017-12-06T00:33:21.576Z,927.88
2017-12-06T00:33:34.742Z,927.88
2017-12-06T00:33:48.038Z,927.91
2017-12-06T00:34:01.245Z,927.86
2017-12-06T00:34:14.053Z,927.87
2017-12-06T00:34:26.711Z,927.87
2017-12-06T00:34:39.466Z,927.91
2017-12-06T00:34:52.664Z,927.93
2017-12-06T00:35:05.900Z,927.92
2017-12-06T00:35:18.900Z,927.92
2017-12-06T00:35:32.172Z,927.89
2017-12-06T00:35:44.839Z,927.93
2017-12-06T00:35:57.536Z,927.91
2017-12-06T00:36:10.393Z,927.93
2017-12-06T00:36:23.108Z,928
2017-12-06T00:36:36.445Z,927.94
2017-12-06T00:36:49.194Z,927.92
2017-12-06T00:37:01.964Z,927.91
2017-12-06T00:37:14.322Z,927.88
2017-12-06T00:37:26.619Z,927.89
2017-12-06T00:37:39.942Z,927.91
2017-12-06T00:37:53.137Z,927.92
2017-12-06T00:38:06.434Z,927.89
2017-12-06T00:38:19.890Z,927.9
2017-12-06T00:38:33.236Z,927.9
2017-12-06T00:38:46.623Z,927.9
2017-12-06T00:38:59.907Z,927.88
2017-12-06T00:39:13.166Z,927.91
2017-12-06T00:39:26.396Z,927.9
2017-12-06T00:39:39.588Z,927.88
2017-12-06T00:39:52.942Z,927.9
2017-12-06T00:40:05.690Z,927.89
2017-12-06T00:40:18.773Z,927.9
2017-12-06T00:40:32.103Z,927.89
2017-12-06T00:40:45.321Z,927.9
2017-12-06T00:40:58.601Z,927.91
2017-12-06T00:41:11.979Z,927.87
2017-12-06T00:41:25.365Z,927.89
2017-12-06T00:41:38.676Z,927.92
2017-12-06T00:41:51.934Z,927.95
2017-12-06T00:42:05.387Z,927.95
2017-12-06T00:42:18.254Z,927.94
2017-12-06T00:42:31.150Z,927.94
2017-12-06T00:42:44.440Z,927.91
2017-12-06T00:42:57.297Z,927.96
2017-12-06T00:43:10.566Z,927.92
2017-12-06T00:43:23.431Z,927.92
2017-12-06T00:43:36.854Z,927.91
2017-12-06T00:43:49.640Z,927.91
2017-12-06T00:44:03.012Z,927.9
2017-12-06T00:44:16.309Z,927.93
2017-12-06T00:44:29.630Z,927.93
2017-12-06T00:44:42.927Z,927.9
2017-12-06T00:44:55.658Z,927.94
2017-12-06T00:45:08.955Z,927.92
2017-12-06T00:45:21.828Z,927.95
2017-12-06T00:45:35.153Z,927.96
2017-12-06T00:45:48.545Z,927.95
2017-12-06T00:46:01.437Z,927.9
2017-12-06T00:46:14.761Z,927.92
2017-12-06T00:46:28.141Z,927.95
2017-12-06T00:46:41.427Z,927.97
2017-12-06T00:46:54.752Z,927.95
2017-12-06T00:47:08.047Z,927.96
2017-12-06T00:47:20.976Z,927.96
2017-12-06T00:47:34.229Z,927.97
2017-12-06T00:47:46.440Z,927.96
2017-12-06T00:47:59.716Z,927.98
2017-12-06T00:48:12.579Z,927.96
2017-12-06T00:48:26.233Z,928.01
2017-12-06T00:48:38.937Z,927.96
2017-12-06T00:48:52.237Z,927.96
2017-12-06T00:49:05.610Z,927.97
2017-12-06T00:49:18.882Z,928.01
2017-12-06T00:49:31.758Z,927.98
2017-12-06T00:49:44.084Z,927.96
2017-12-06T00:49:57.436Z,927.97
2017-12-06T00:50:10.663Z,927.99
2017-12-06T00:50:22.984Z,927.99
2017-12-06T00:50:35.273Z,927.95
2017-12-06T00:50:48.565Z,927.96
2017-12-06T00:51:01.849Z,927.94
2017-12-06T00:51:16.696Z,927.94
2017-12-06T00:51:29.437Z,927.98
2017-12-06T00:51:42.662Z,927.97
2017-12-06T00:51:55.375Z,927.97
2017-12-06T00:52:08.599Z,928.02
2017-12-06T00:52:20.873Z,927.97
2017-12-06T00:52:33.652Z,927.95
2017-12-06T00:52:46.884Z,927.95
2017-12-06T00:53:00.250Z,927.96
2017-12-06T00:53:13.484Z,927.98
2017-12-06T00:53:27.418Z,927.93
2017-12-06T00:53:40.573Z,927.93
2017-12-06T00:53:53.785Z,927.97
2017-12-06T00:54:06.077Z,927.96
2017-12-06T00:54:19.320Z,927.95
2017-12-06T00:54:32.519Z,927.91
2017-12-06T00:54:45.744Z,927.89
2017-12-06T00:54:58.462Z,927.89
2017-12-06T00:55:11.135Z,927.88
2017-12-06T00:55:24.287Z,927.89
2017-12-06T00:55:36.979Z,927.89
2017-12-06T00:55:50.225Z,927.9
2017-12-06T00:56:03.413Z,927.88
2017-12-06T00:56:16.592Z,927.91
2017-12-06T00:56:29.877Z,927.91
2017-12-06T00:56:42.126Z,927.88
2017-12-06T00:56:55.296Z,927.87
2017-12-06T00:57:08.002Z,927.91
2017-12-06T00:57:20.209Z,927.93
2017-12-06T00:57:32.948Z,927.88
2017-12-06T00:57:46.184Z,927.9
2017-12-06T00:57:59.370Z,927.88
2017-12-06T00:58:12.103Z,927.86
2017-12-06T00:58:24.863Z,927.86
2017-12-06T00:58:38.619Z,927.89
2017-12-06T00:58:51.770Z,927.9
2017-12-06T00:59:04.487Z,927.9
2017-12-06T00:59:17.641Z,927.89
2017-12-06T00:59:30.855Z,927.9
2017-12-06T00:59:43.530Z,927.89
2017-12-06T00:59:56.650Z,927.92
2017-12-06T01:00:09.339Z,927.9
2017-12-06T01:00:22.538Z,927.91
2017-12-06T01:00:35.696Z,927.91
2017-12-06T01:00:48.437Z,927.91
2017-12-06T01:01:01.128Z,927.95
2017-12-06T01:01:13.812Z,927.93
2017-12-06T01:01:26.497Z,927.98
2017-12-06T01:01:38.731Z,927.93
2017-12-06T01:01:52.103Z,927.92
2017-12-06T01:02:04.288Z,927.91
2017-12-06T01:02:17.446Z,927.86
2017-12-06T01:02:30.106Z,927.85
2017-12-06T01:02:43.286Z,927.88
2017-12-06T01:02:56.403Z,927.9
2017-12-06T01:03:09.563Z,927.88
2017-12-06T01:03:22.254Z,927.89
2017-12-06T01:03:34.943Z,927.88
2017-12-06T01:03:48.082Z,927.9
2017-12-06T01:04:01.255Z,927.87
2017-12-06T01:04:14.404Z,927.85
2017-12-06T01:04:27.070Z,927.87
2017-12-06T01:04:40.209Z,927.88
2017-12-06T01:04:53.345Z,927.95
2017-12-06T01:05:06.483Z,927.92
2017-12-06T01:05:19.580Z,927.94
2017-12-06T01:05:32.243Z,927.95
2017-12-06T01:05:45.615Z,927.89
2017-12-06T01:05:58.717Z,927.86
2017-12-06T01:06:11.836Z,927.86
2017-12-06T01:06:24.485Z,927.88
2017-12-06T01:06:37.151Z,927.93
2017-12-06T01:06:49.770Z,927.88
2017-12-06T01:07:02.406Z,927.98
2017-12-06T01:07:15.716Z,927.92
2017-12-06T01:07:28.384Z,927.89
2017-12-06T01:07:41.045Z,927.89
2017-12-06T01:07:54.120Z,927.9
2017-12-06T01:08:07.309Z,927.89
2017-12-06T01:08:19.979Z,927.9
2017-12-06T01:08:32.838Z,927.89
2017-12-06T01:08:45.975Z,927.93
2017-12-06T01:08:59.053Z,927.92
2017-12-06T01:09:12.214Z,927.92
2017-12-06T01:09:24.841Z,927.94
2017-12-06T01:09:37.947Z,927.98
2017-12-06T01:09:51.042Z,927.89
2017-12-06T01:10:03.953Z,927.86
2017-12-06T01:10:16.981Z,927.87
2017-12-06T01:10:29.598Z,927.96
2017-12-06T01:10:42.198Z,927.89
2017-12-06T01:10:54.848Z,927.83
2017-12-06T01:11:07.956Z,927.91
2017-12-06T01:11:21.069Z,927.91
2017-12-06T01:11:33.692Z,927.88
2017-12-06T01:11:46.304Z,927.86
2017-12-06T01:11:59.392Z,927.88
2017-12-06T01:12:12.466Z,927.88
2017-12-06T01:12:25.656Z,927.87
2017-12-06T01:12:37.812Z,927.88
2017-12-06T01:12:50.469Z,927.86
2017-12-06T01:13:03.549Z,927.88
2017-12-06T01:13:16.703Z,927.85
2017-12-06T01:13:29.814Z,927.89
2017-12-06T01:13:42.891Z,927.89
2017-12-06T01:13:55.086Z,927.88
2017-12-06T01:14:08.168Z,927.89
2017-12-06T01:14:21.307Z,927.82
2017-12-06T01:14:34.421Z,927.89
2017-12-06T01:14:46.978Z,927.89
2017-12-06T01:14:59.660Z,927.95
2017-12-06T01:15:12.265Z,927.89
2017-12-06T01:15:25.357Z,927.92
2017-12-06T01:15:38.513Z,927.89
2017-12-06T01:15:51.144Z,927.83
2017-12-06T01:16:04.243Z,927.92
2017-12-06T01:16:17.324Z,927.92
2017-12-06T01:16:29.983Z,927.92
2017-12-06T01:16:43.080Z,927.9
2017-12-06T01:16:56.196Z,927.93
2017-12-06T01:17:08.791Z,927.9
2017-12-06T01:17:21.886Z,927.9
2017-12-06T01:17:35.010Z,927.92
2017-12-06T01:17:48.149Z,927.9
2017-12-06T01:18:01.303Z,927.9
2017-12-06T01:18:13.913Z,927.91
2017-12-06T01:18:27.264Z,927.89
2017-12-06T01:18:40.409Z,927.91
2017-12-06T01:18:53.509Z,927.92
2017-12-06T01:19:06.230Z,927.92
2017-12-06T01:19:19.375Z,927.92
2017-12-06T01:19:32.476Z,927.92
2017-12-06T01:19:45.606Z,927.93
2017-12-06T01:19:58.673Z,927.9
2017-12-06T01:20:11.349Z,927.91
2017-12-06T01:20:24.480Z,927.89
2017-12-06T01:20:37.535Z,927.9
2017-12-06T01:20:50.682Z,927.93
2017-12-06T01:21:03.792Z,927.86
2017-12-06T01:21:16.887Z,927.88
2017-12-06T01:21:29.939Z,927.87
2017-12-06T01:21:43.071Z,927.9
2017-12-06T01:21:57.575Z,927.86
2017-12-06T01:22:10.747Z,927.83
2017-12-06T01:22:23.401Z,927.84
2017-12-06T01:22:36.485Z,927.85
2017-12-06T01:22:48.604Z,927.82
2017-12-06T01:23:01.697Z,927.84
2017-12-06T01:23:14.708Z,927.85
2017-12-06T01:23:28.581Z,927.89
2017-12-06T01:23:41.681Z,927.82
2017-12-06T01:23:54.733Z,927.85
2017-12-06T01:24:07.389Z,927.78
2017-12-06T01:24:20.557Z,927.86
2017-12-06T01:24:33.636Z,927.82
2017-12-06T01:24:46.248Z,927.8
2017-12-06T01:24:59.322Z,927.81
2017-12-06T01:25:11.939Z,927.83
2017-12-06T01:25:25.072Z,927.83
2017-12-06T01:25:37.682Z,927.83
2017-12-06T01:25:50.358Z,927.78
2017-12-06T01:26:02.537Z,927.78
2017-12-06T01:26:15.189Z,927.82
2017-12-06T01:26:28.240Z,927.8
2017-12-06T01:26:40.869Z,927.82
2017-12-06T01:26:53.963Z,927.82
2017-12-06T01:27:06.634Z,927.79
2017-12-06T01:27:19.233Z,927.77
2017-12-06T01:27:32.360Z,927.8
2017-12-06T01:27:45.484Z,927.8
2017-12-06T01:27:58.598Z,927.8
2017-12-06T01:28:11.691Z,927.79
2017-12-06T01:28:24.740Z,927.79
2017-12-06T01:28:37.865Z,927.81
2017-12-06T01:28:50.514Z,927.85
2017-12-06T01:29:03.663Z,927.82
2017-12-06T01:29:16.800Z,927.82
2017-12-06T01:29:29.922Z,927.8
2017-12-06T01:29:43.013Z,927.81
2017-12-06T01:29:56.139Z,927.83
2017-12-06T01:30:08.768Z,927.82
2017-12-06T01:30:21.925Z,927.81
2017-12-06T01:30:34.526Z,927.77
2017-12-06T01:30:47.652Z,927.76
2017-12-06T01:31:00.747Z,927.76
2017-12-06T01:31:13.374Z,927.76
2017-12-06T01:31:25.985Z,927.78
2017-12-06T01:31:38.149Z,927.77
2017-12-06T01:31:51.231Z,927.77
2017-12-06T01:32:03.853Z,927.76
2017-12-06T01:32:16.944Z,927.8
2017-12-06T01:32:30.067Z,927.76
2017-12-06T01:32:42.234Z,927.73
2017-12-06T01:32:55.327Z,927.74
2017-12-06T01:33:08.414Z,927.77
2017-12-06T01:33:21.522Z,927.79
2017-12-06T01:33:34.643Z,927.77
2017-12-06T01:33:47.700Z,927.79
2017-12-06T01:34:00.860Z,927.76
2017-12-06T01:34:13.980Z,927.78
2017-12-06T01:34:27.086Z,927.79
2017-12-06T01:34:39.724Z,927.75
2017-12-06T01:34:52.326Z,927.77
2017-12-06T01:35:05.432Z,927.76
2017-12-06T01:35:18.616Z,927.79
2017-12-06T01:35:31.698Z,927.7
2017-12-06T01:35:44.346Z,927.74
2017-12-06T01:35:57.482Z,927.82
2017-12-06T01:36:09.167Z,927.74
2017-12-06T01:36:22.288Z,927.78
2017-12-06T01:36:35.427Z,927.77
2017-12-06T01:36:48.619Z,927.78
2017-12-06T01:37:01.848Z,927.76
2017-12-06T01:37:15.033Z,927.81
2017-12-06T01:37:28.190Z,927.78
2017-12-06T01:37:40.395Z,927.72
2017-12-06T01:37:53.699Z,927.69
2017-12-06T01:38:07.011Z,927.74
2017-12-06T01:38:19.842Z,927.75
2017-12-06T01:38:33.128Z,927.75
2017-12-06T01:38:46.559Z,927.7
2017-12-06T01:38:59.715Z,927.74
2017-12-06T01:39:13.089Z,927.7
2017-12-06T01:39:26.393Z,927.71
2017-12-06T01:39:39.270Z,927.73
2017-12-06T01:39:52.166Z,927.71
2017-12-06T01:40:05.418Z,927.71
2017-12-06T01:40:18.267Z,927.7
2017-12-06T01:40:30.936Z,927.74
2017-12-06T01:40:44.188Z,927.66
2017-12-06T01:40:57.374Z,927.75
2017-12-06T01:41:10.626Z,927.68
2017-12-06T01:41:23.868Z,927.74
2017-12-06T01:41:36.771Z,927.73
2017-12-06T01:41:50.084Z,927.72
2017-12-06T01:42:02.942Z,927.73
2017-12-06T01:42:16.274Z,927.69
2017-12-06T01:42:29.042Z,927.72
2017-12-06T01:42:42.449Z,927.7
2017-12-06T01:42:55.862Z,927.71
2017-12-06T01:43:09.147Z,927.66
2017-12-06T01:43:22.044Z,927.66
2017-12-06T01:43:35.404Z,927.66
2017-12-06T01:43:48.224Z,927.7
2017-12-06T01:44:01.479Z,927.7
2017-12-06T01:44:14.467Z,927.67
2017-12-06T01:44:27.991Z,927.68
2017-12-06T01:44:40.363Z,927.69
2017-12-06T01:44:53.721Z,927.64
2017-12-06T01:45:06.042Z,927.67
2017-12-06T01:45:19.042Z,927.65
2017-12-06T01:45:32.464Z,927.67
2017-12-06T01:45:45.273Z,927.65
2017-12-06T01:45:58.585Z,927.59
2017-12-06T01:46:12.062Z,927.67
2017-12-06T01:46:24.936Z,927.7
2017-12-06T01:46:38.254Z,927.65
2017-12-06T01:46:51.660Z,927.69
2017-12-06T01:47:04.645Z,927.66
2017-12-06T01:47:18.122Z,927.71
2017-12-06T01:47:31.526Z,927.67
2017-12-06T01:47:44.287Z,927.66
2017-12-06T01:47:57.755Z,927.65
2017-12-06T01:48:11.160Z,927.67
2017-12-06T01:48:24.550Z,927.67
2017-12-06T01:48:38.129Z,927.67
2017-12-06T01:48:51.726Z,927.65
2017-12-06T01:49:05.352Z,927.67
2017-12-06T01:49:18.553Z,927.67
2017-12-06T01:49:31.765Z,927.63
2017-12-06T01:49:44.874Z,927.71
2017-12-06T01:49:58.080Z,927.69
2017-12-06T01:50:10.835Z,927.72
2017-12-06T01:50:24.018Z,927.62
2017-12-06T01:50:37.249Z,927.65
2017-12-06T01:50:50.389Z,927.69
2017-12-06T01:51:03.651Z,927.67
2017-12-06T01:51:16.805Z,927.64
2017-12-06T01:51:29.976Z,927.64
2017-12-06T01:51:43.110Z,927.68
2017-12-06T01:51:56.497Z,927.69
2017-12-06T01:52:09.168Z,927.68
2017-12-06T01:52:22.315Z,927.66
2017-12-06T01:52:35.489Z,927.68
2017-12-06T01:52:48.606Z,927.69
2017-12-06T01:53:01.752Z,927.69
2017-12-06T01:53:14.884Z,927.68
2017-12-06T01:53:27.556Z,927.68
2017-12-06T01:53:40.700Z,927.71
2017-12-06T01:53:53.990Z,927.69
2017-12-06T01:54:06.635Z,927.68
2017-12-06T01:54:19.304Z,927.7
2017-12-06T01:54:32.443Z,927.72
2017-12-06T01:54:45.525Z,927.72
2017-12-06T01:54:58.133Z,927.7
2017-12-06T01:55:11.262Z,927.7
2017-12-06T01:55:24.316Z,927.68
2017-12-06T01:55:37.381Z,927.69
2017-12-06T01:55:49.069Z,927.69
2017-12-06T01:56:01.674Z,927.66
2017-12-06T01:56:14.752Z,927.66
2017-12-06T01:56:27.333Z,927.67
2017-12-06T01:56:40.526Z,927.65
2017-12-06T01:56:53.625Z,927.66
2017-12-06T01:57:06.224Z,927.69
2017-12-06T01:57:19.311Z,927.71
2017-12-06T01:57:32.406Z,927.66
2017-12-06T01:57:45.562Z,927.67
2017-12-06T01:57:58.176Z,927.69
2017-12-06T01:58:11.399Z,927.66
2017-12-06T01:58:24.073Z,927.66
2017-12-06T01:58:37.144Z,927.63
2017-12-06T01:58:49.752Z,927.64
2017-12-06T01:59:02.391Z,927.63
2017-12-06T01:59:15.558Z,927.58
2017-12-06T01:59:28.641Z,927.64
2017-12-06T01:59:41.722Z,927.65
2017-12-06T01:59:54.824Z,927.63
2017-12-06T02:00:08.022Z,927.63
2017-12-06T02:00:21.120Z,927.57
2017-12-06T02:00:34.310Z,927.58
2017-12-06T02:00:47.405Z,927.59
2017-12-06T02:01:00.469Z,927.55
2017-12-06T02:01:13.582Z,927.56
2017-12-06T02:01:26.229Z,927.54
2017-12-06T02:01:39.321Z,927.55
2017-12-06T02:01:51.957Z,927.51
2017-12-06T02:02:04.513Z,927.54
2017-12-06T02:02:16.650Z,927.51
2017-12-06T02:02:29.743Z,927.54
2017-12-06T02:02:42.859Z,927.55
2017-12-06T02:02:55.076Z,927.46
2017-12-06T02:03:08.206Z,927.52
2017-12-06T02:03:20.851Z,927.49
2017-12-06T02:03:33.985Z,927.53
2017-12-06T02:03:46.607Z,927.51
2017-12-06T02:03:59.712Z,927.52
2017-12-06T02:04:12.944Z,927.51
2017-12-06T02:04:26.108Z,927.53
2017-12-06T02:04:39.258Z,927.55
2017-12-06T02:04:52.446Z,927.5
2017-12-06T02:05:05.633Z,927.51
2017-12-06T02:05:18.823Z,927.5
2017-12-06T02:05:31.959Z,927.5
2017-12-06T02:05:45.082Z,927.51
2017-12-06T02:05:58.213Z,927.51
2017-12-06T02:06:11.424Z,927.53
2017-12-06T02:06:24.564Z,927.47
2017-12-06T02:06:37.682Z,927.52
2017-12-06T02:06:50.438Z,927.51
2017-12-06T02:07:02.648Z,927.51
2017-12-06T02:07:15.852Z,927.58
2017-12-06T02:07:29.146Z,927.55
2017-12-06T02:07:42.361Z,927.56
2017-12-06T02:07:54.612Z,927.55
2017-12-06T02:08:07.946Z,927.56
2017-12-06T02:08:21.208Z,927.5
2017-12-06T02:08:34.145Z,927.54
2017-12-06T02:08:47.385Z,927.52
2017-12-06T02:09:00.653Z,927.53
2017-12-06T02:09:13.488Z,927.54
2017-12-06T02:09:26.716Z,927.5
2017-12-06T02:09:39.820Z,927.54
2017-12-06T02:09:52.962Z,927.52
2017-12-06T02:10:06.074Z,927.48
2017-12-06T02:10:18.714Z,927.53
2017-12-06T02:10:31.815Z,927.52
2017-12-06T02:10:44.973Z,927.49
2017-12-06T02:10:57.651Z,927.53
2017-12-06T02:11:10.757Z,927.55
2017-12-06T02:11:23.923Z,927.55
2017-12-06T02:11:36.612Z,927.55
2017-12-06T02:11:49.720Z,927.53
2017-12-06T02:12:02.870Z,927.52
2017-12-06T02:12:16.052Z,927.57
2017-12-06T02:12:28.669Z,927.55
2017-12-06T02:12:41.868Z,927.57
2017-12-06T02:12:54.980Z,927.58
2017-12-06T02:13:08.056Z,927.6
2017-12-06T02:13:20.723Z,927.6
2017-12-06T02:13:33.359Z,927.56
2017-12-06T02:13:45.957Z,927.61
2017-12-06T02:13:59.049Z,927.58
2017-12-06T02:14:12.094Z,927.52
2017-12-06T02:14:25.158Z,927.56
2017-12-06T02:14:38.314Z,927.54
2017-12-06T02:14:51.374Z,927.56
2017-12-06T02:15:04.492Z,927.53
2017-12-06T02:15:17.595Z,927.56
2017-12-06T02:15:30.745Z,927.56
2017-12-06T02:15:43.365Z,927.54
2017-12-06T02:15:56.397Z,927.57
2017-12-06T02:16:09.039Z,927.54
2017-12-06T02:16:22.143Z,927.58
2017-12-06T02:16:53.522Z,927.59
2017-12-06T02:17:06.137Z,927.63
2017-12-06T02:17:18.778Z,927.55
2017-12-06T02:17:31.879Z,927.54
2017-12-06T02:17:44.963Z,927.51
2017-12-06T02:17:58.035Z,927.53
2017-12-06T02:18:32.935Z,927.56
2017-12-06T02:18:46.040Z,927.54
2017-12-06T02:19:12.030Z,927.61
2017-12-06T02:19:25.084Z,927.57
2017-12-06T02:19:38.258Z,927.58
2017-12-06T02:19:50.888Z,927.63
2017-12-06T02:20:03.524Z,927.6
2017-12-06T02:20:16.599Z,927.57
2017-12-06T02:20:29.165Z,927.58
2017-12-06T02:20:42.234Z,927.53
2017-12-06T02:20:54.918Z,927.56
2017-12-06T02:21:08.022Z,927.58
2017-12-06T02:21:20.748Z,927.59
2017-12-06T02:21:33.410Z,927.58
2017-12-06T02:21:46.537Z,927.58
2017-12-06T02:21:59.580Z,927.6
2017-12-06T02:22:12.239Z,927.58
2017-12-06T02:22:28.373Z,927.59
2017-12-06T02:22:41.527Z,927.6
2017-12-06T02:22:54.653Z,927.64
2017-12-06T02:23:07.320Z,927.64
2017-12-06T02:23:21.392Z,927.6
2017-12-06T02:23:34.488Z,927.63
2017-12-06T02:23:47.630Z,927.65
2017-12-06T02:24:01.444Z,927.64
2017-12-06T02:24:14.064Z,927.63
2017-12-06T02:24:27.181Z,927.62
2017-12-06T02:24:39.815Z,927.62
2017-12-06T02:24:52.919Z,927.67
2017-12-06T02:25:05.536Z,927.66
2017-12-06T02:25:18.211Z,927.62
2017-12-06T02:25:31.335Z,927.61
2017-12-06T02:25:44.434Z,927.63
2017-12-06T02:25:57.087Z,927.61
2017-12-06T02:26:10.147Z,927.65
2017-12-06T02:26:22.806Z,927.6
2017-12-06T02:26:35.926Z,927.64
2017-12-06T02:26:49.006Z,927.64
2017-12-06T02:27:02.161Z,927.59
2017-12-06T02:27:15.229Z,927.56
2017-12-06T02:27:28.355Z,927.59
2017-12-06T02:27:41.556Z,927.57
2017-12-06T02:27:54.194Z,927.56
2017-12-06T02:28:07.301Z,927.6
2017-12-06T02:28:19.937Z,927.57
2017-12-06T02:28:33.089Z,927.57
2017-12-06T02:28:46.192Z,927.54
2017-12-06T02:28:59.476Z,927.57
2017-12-06T02:29:12.575Z,927.56
2017-12-06T02:29:25.647Z,927.57
2017-12-06T02:29:38.809Z,927.56
2017-12-06T02:29:51.913Z,927.59
2017-12-06T02:30:04.998Z,927.6
2017-12-06T02:30:18.039Z,927.61
2017-12-06T02:30:31.214Z,927.57
2017-12-06T02:30:44.308Z,927.52
2017-12-06T02:30:56.933Z,927.58
2017-12-06T02:31:10.098Z,927.55
2017-12-06T02:31:23.224Z,927.56
2017-12-06T02:31:36.322Z,927.58
2017-12-06T02:31:49.436Z,927.57
2017-12-06T02:32:02.595Z,927.57
2017-12-06T02:32:14.732Z,927.53
2017-12-06T02:32:27.792Z,927.57
2017-12-06T02:32:40.913Z,927.55
2017-12-06T02:32:53.558Z,927.57
2017-12-06T02:33:05.683Z,927.56
2017-12-06T02:33:18.767Z,927.56
2017-12-06T02:33:31.866Z,927.57
2017-12-06T02:33:45.012Z,927.58
2017-12-06T02:33:58.163Z,927.56
2017-12-06T02:34:10.831Z,927.53
2017-12-06T02:34:23.936Z,927.51
2017-12-06T02:34:36.527Z,927.52
2017-12-06T02:34:49.612Z,927.5
2017-12-06T02:35:01.768Z,927.49
2017-12-06T02:35:14.823Z,927.51
2017-12-06T02:35:27.967Z,927.47
2017-12-06T02:35:40.114Z,927.48
2017-12-06T02:35:52.777Z,927.49
2017-12-06T02:36:05.908Z,927.5
2017-12-06T02:36:19.052Z,927.46
2017-12-06T02:36:32.128Z,927.48
2017-12-06T02:36:45.265Z,927.5
2017-12-06T02:36:58.003Z,927.45
2017-12-06T02:37:10.658Z,927.46
2017-12-06T02:37:23.241Z,927.43
2017-12-06T02:37:35.852Z,927.46
2017-12-06T02:37:48.972Z,927.42
2017-12-06T02:38:01.618Z,927.44
2017-12-06T02:38:14.341Z,927.39
2017-12-06T02:38:27.421Z,927.45
2017-12-06T02:38:40.039Z,927.44
2017-12-06T02:38:53.157Z,927.47
2017-12-06T02:39:06.781Z,927.39
2017-12-06T02:39:19.935Z,927.39
2017-12-06T02:39:33.069Z,927.42
2017-12-06T02:39:46.193Z,927.41
2017-12-06T02:39:59.292Z,927.46
2017-12-06T02:40:12.444Z,927.39
2017-12-06T02:40:25.534Z,927.42
2017-12-06T02:40:38.811Z,927.39
2017-12-06T02:40:51.907Z,927.43
2017-12-06T02:41:05.055Z,927.45
2017-12-06T02:41:18.159Z,927.46
2017-12-06T02:41:31.291Z,927.44
2017-12-06T02:41:44.386Z,927.41
2017-12-06T02:41:57.517Z,927.43
2017-12-06T02:42:09.204Z,927.42
2017-12-06T02:42:21.812Z,927.43
2017-12-06T02:42:34.969Z,927.41
2017-12-06T02:42:48.077Z,927.42
2017-12-06T02:43:00.682Z,927.46
2017-12-06T02:43:13.843Z,927.45
2017-12-06T02:43:26.929Z,927.45